createdAt,value
2023-03-13T00:01:50.166Z,1.00
2023-03-13T00:04:27.871Z,1.00
2023-03-13T00:07:02.864Z,1.00
2023-03-13T00:09:37.903Z,1.00
2023-03-13T00:12:12.884Z,1.00
2023-03-13T00:14:47.741Z,1.00
2023-03-13T00:17:22.777Z,1.00
2023-03-13T00:20:00.399Z,1.00
2023-03-13T00:22:35.303Z,1.00
2023-03-13T00:25:10.986Z,1.00
2023-03-13T00:27:46.067Z,99.90
2023-03-13T00:30:23.412Z,99.90
2023-03-13T00:32:58.631Z,99.90
2023-03-13T00:35:37.171Z,50.30
2023-03-13T00:38:12.078Z,1.00
2023-03-13T00:40:49.554Z,1.00
2023-03-13T00:43:24.769Z,1.00
2023-03-13T00:45:59.949Z,1.00
2023-03-13T00:48:36.096Z,1.00
2023-03-13T00:51:13.993Z,1.00
2023-03-13T00:53:50.388Z,1.00
2023-03-13T00:56:25.700Z,1.00
2023-03-13T00:59:02.375Z,1.00
2023-03-13T01:01:39.067Z,1.00
2023-03-13T01:04:16.917Z,1.00
2023-03-13T01:06:54.431Z,1.00
2023-03-13T01:09:29.699Z,1.00
2023-03-13T01:12:08.229Z,99.90
2023-03-13T01:14:43.105Z,99.90
2023-03-13T01:17:18.382Z,99.90
2023-03-13T01:19:53.296Z,99.90
2023-03-13T01:22:31.006Z,99.90
2023-03-13T01:25:09.040Z,45.90
2023-03-13T01:27:43.959Z,21.50
2023-03-13T01:30:19.278Z,1.00
2023-03-13T01:32:54.190Z,1.00
2023-03-13T01:35:32.109Z,1.00
2023-03-13T01:38:13.032Z,1.00
2023-03-13T01:40:49.744Z,1.00
2023-03-13T01:43:27.727Z,1.00
2023-03-13T01:46:16.593Z,1.00
2023-03-13T01:49:03.888Z,1.00
2023-03-13T01:51:50.083Z,1.00
2023-03-13T01:54:31.609Z,1.00
2023-03-13T01:57:11.540Z,1.00
2023-03-13T01:59:51.112Z,1.00
2023-03-13T02:02:27.392Z,1.00
2023-03-13T02:05:06.001Z,1.00
2023-03-13T02:07:45.836Z,1.00
2023-03-13T02:10:25.396Z,1.00
2023-03-13T02:13:01.797Z,1.00
2023-03-13T02:15:40.204Z,1.00
2023-03-13T02:18:15.863Z,1.00
2023-03-13T02:20:52.994Z,1.00
2023-03-13T02:23:33.580Z,1.00
2023-03-13T02:26:13.978Z,1.00
2023-03-13T02:28:50.363Z,1.00
2023-03-13T02:31:27.428Z,1.00
2023-03-13T02:34:04.718Z,99.90
2023-03-13T02:36:39.962Z,99.90
2023-03-13T02:39:18.338Z,99.90
2023-03-13T02:41:56.854Z,99.90
2023-03-13T02:44:31.887Z,1.00
2023-03-13T02:47:07.014Z,1.00
2023-03-13T02:49:42.178Z,1.00
2023-03-13T02:52:20.779Z,99.90
2023-03-13T02:55:01.449Z,99.90
2023-03-13T02:57:41.765Z,99.90
2023-03-13T03:00:17.821Z,99.90
2023-03-13T03:02:53.120Z,99.90
2023-03-13T03:05:28.530Z,99.90
2023-03-13T03:08:04.350Z,99.90
2023-03-13T03:10:40.152Z,99.90
2023-03-13T03:13:17.897Z,99.90
2023-03-13T03:15:52.962Z,99.90
2023-03-13T03:18:28.345Z,99.90
2023-03-13T03:21:06.351Z,99.90
2023-03-13T03:23:45.334Z,99.90
2023-03-13T03:26:20.668Z,99.90
2023-03-13T03:28:58.514Z,1.00
2023-03-13T03:31:34.427Z,1.00
2023-03-13T03:34:12.814Z,1.00
2023-03-13T03:36:47.787Z,1.00
2023-03-13T03:39:22.670Z,1.00
2023-03-13T03:41:58.474Z,1.00
2023-03-13T03:44:40.117Z,1.00
2023-03-13T03:47:15.795Z,1.00
2023-03-13T03:49:56.471Z,1.00
2023-03-13T03:52:31.384Z,1.00
2023-03-13T03:55:06.686Z,1.00
2023-03-13T03:57:41.687Z,1.00
2023-03-13T04:00:24.966Z,1.00
2023-03-13T04:03:02.172Z,1.00
2023-03-13T04:05:37.105Z,1.00
2023-03-13T04:08:12.961Z,99.90
2023-03-13T04:10:48.101Z,99.90
2023-03-13T04:13:23.950Z,99.90
2023-03-13T04:16:01.913Z,1.00
2023-03-13T04:18:37.202Z,1.00
2023-03-13T04:21:12.360Z,1.00
2023-03-13T04:23:57.811Z,1.00
2023-03-13T04:26:36.145Z,1.00
2023-03-13T04:29:13.879Z,1.00
2023-03-13T04:32:00.253Z,1.00
2023-03-13T04:34:56.010Z,1.00
2023-03-13T04:37:45.309Z,1.00
2023-03-13T04:40:37.331Z,1.00
2023-03-13T04:43:38.392Z,99.90
2023-03-13T04:46:20.160Z,99.90
2023-03-13T04:49:10.845Z,99.90
2023-03-13T04:52:04.173Z,1.00
2023-03-13T04:54:55.827Z,1.00
2023-03-13T04:57:45.809Z,1.00
2023-03-13T05:00:39.528Z,1.00
2023-03-13T05:03:34.093Z,1.00
2023-03-13T05:06:21.383Z,1.00
2023-03-13T05:09:10.881Z,1.00
2023-03-13T05:11:59.222Z,1.00
2023-03-13T05:14:53.895Z,1.00
2023-03-13T05:17:42.548Z,1.00
2023-03-13T05:20:30.373Z,1.00
2023-03-13T05:23:18.986Z,1.00
2023-03-13T05:26:11.794Z,99.90
2023-03-13T05:29:09.740Z,99.90
2023-03-13T05:31:57.164Z,99.90
2023-03-13T05:34:54.958Z,99.90
2023-03-13T05:37:57.698Z,99.90
2023-03-13T05:40:56.964Z,99.90
2023-03-13T05:43:56.711Z,99.90
2023-03-13T05:46:52.915Z,99.90
2023-03-13T05:49:46.690Z,99.90
2023-03-13T05:52:41.854Z,46.90
2023-03-13T05:55:35.653Z,1.00
2023-03-13T05:58:54.683Z,1.00
2023-03-13T06:01:51.001Z,1.00
2023-03-13T06:04:35.653Z,1.00
2023-03-13T06:07:10.711Z,1.00
2023-03-13T06:09:45.857Z,1.00
2023-03-13T06:12:21.897Z,1.00
2023-03-13T06:14:59.447Z,1.00
2023-03-13T06:17:57.194Z,1.00
2023-03-13T06:20:32.147Z,1.00
2023-03-13T06:23:07.100Z,1.00
2023-03-13T06:25:41.989Z,1.00
2023-03-13T06:28:17.191Z,1.00
2023-03-13T06:30:55.251Z,1.00
2023-03-13T06:33:31.117Z,1.00
2023-03-13T06:36:06.875Z,99.90
2023-03-13T06:38:41.834Z,99.90
2023-03-13T06:41:16.914Z,99.90
2023-03-13T06:43:52.133Z,99.90
2023-03-13T06:46:29.603Z,99.90
2023-03-13T06:49:06.009Z,99.90
2023-03-13T06:51:40.945Z,99.90
2023-03-13T06:54:15.998Z,99.90
2023-03-13T06:56:50.909Z,89.90
2023-03-13T06:59:25.796Z,16.20
2023-03-13T07:02:06.399Z,1.00
2023-03-13T07:04:45.942Z,1.00
2023-03-13T07:07:31.208Z,1.00
2023-03-13T07:10:07.627Z,1.00
2023-03-13T07:12:42.597Z,1.00
2023-03-13T07:15:17.554Z,1.00
2023-03-13T07:17:55.529Z,1.00
2023-03-13T07:20:30.827Z,1.00
2023-03-13T07:23:05.812Z,1.00
2023-03-13T07:25:40.744Z,59.60
2023-03-13T07:28:15.693Z,99.90
2023-03-13T07:30:53.563Z,99.90
2023-03-13T07:33:31.122Z,1.00
2023-03-13T07:36:06.653Z,1.00
2023-03-13T07:38:45.107Z,1.00
2023-03-13T07:41:20.302Z,1.00
2023-03-13T07:43:58.058Z,99.90
2023-03-13T07:46:33.011Z,1.00
2023-03-13T07:49:10.855Z,1.00
2023-03-13T07:51:47.775Z,1.00
2023-03-13T07:54:22.953Z,1.00
2023-03-13T07:56:57.806Z,1.00
2023-03-13T07:59:35.315Z,99.90
2023-03-13T08:02:14.287Z,1.00
2023-03-13T08:04:55.991Z,99.90
2023-03-13T08:07:31.613Z,1.00
2023-03-13T08:10:07.336Z,1.00
2023-03-13T08:12:42.263Z,99.90
2023-03-13T08:15:18.775Z,1.00
2023-03-13T08:17:53.615Z,80.80
2023-03-13T08:20:31.085Z,82.00
2023-03-13T08:23:06.010Z,1.00
2023-03-13T08:25:40.930Z,1.00
2023-03-13T08:28:15.832Z,1.00
2023-03-13T08:30:50.892Z,1.00
2023-03-13T08:33:25.992Z,99.90
2023-03-13T08:36:11.886Z,99.90
2023-03-13T08:38:47.792Z,1.00
2023-03-13T08:41:28.678Z,99.90
2023-03-13T08:44:07.790Z,99.90
2023-03-13T08:46:46.520Z,99.90
2023-03-13T08:49:21.401Z,1.00
2023-03-13T08:51:58.810Z,99.90
2023-03-13T08:54:33.722Z,99.90
2023-03-13T08:57:08.644Z,99.90
2023-03-13T08:59:43.625Z,1.00
2023-03-13T09:02:20.302Z,99.90
2023-03-13T09:04:55.698Z,1.00
2023-03-13T09:07:33.222Z,99.90
2023-03-13T09:10:09.470Z,99.90
2023-03-13T09:12:47.111Z,47.30
2023-03-13T09:15:22.063Z,1.00
2023-03-13T09:17:57.969Z,1.00
2023-03-13T09:20:32.892Z,1.00
2023-03-13T09:23:13.091Z,99.90
2023-03-13T09:25:51.499Z,99.90
2023-03-13T09:28:30.040Z,99.90
2023-03-13T09:31:12.082Z,99.90
2023-03-13T09:33:51.391Z,99.90
2023-03-13T09:36:26.592Z,99.90
2023-03-13T09:39:04.263Z,1.00
2023-03-13T09:41:42.918Z,1.00
2023-03-13T09:44:24.326Z,1.00
2023-03-13T09:47:05.798Z,24.90
2023-03-13T09:49:43.628Z,99.90
2023-03-13T09:52:20.864Z,6.70
2023-03-13T09:55:01.839Z,1.00
2023-03-13T09:57:38.663Z,99.90
2023-03-13T10:00:17.711Z,14.30
2023-03-13T10:02:59.352Z,1.00
2023-03-13T10:05:35.647Z,99.90
2023-03-13T10:08:17.808Z,99.90
2023-03-13T10:11:01.651Z,1.00
2023-03-13T10:13:44.232Z,1.00
2023-03-13T10:16:24.565Z,15.10
2023-03-13T10:19:02.293Z,49.50
2023-03-13T10:21:38.914Z,99.90
2023-03-13T10:24:21.086Z,1.00
2023-03-13T10:26:59.396Z,1.00
2023-03-13T10:29:38.355Z,1.00
2023-03-13T10:32:16.433Z,99.90
2023-03-13T10:34:59.814Z,99.90
2023-03-13T10:37:44.986Z,1.00
2023-03-13T10:40:25.848Z,1.00
2023-03-13T10:43:08.047Z,1.00
2023-03-13T10:45:43.365Z,99.90
2023-03-13T10:48:22.102Z,99.90
2023-03-13T10:51:02.189Z,99.90
2023-03-13T10:53:39.976Z,1.00
2023-03-13T10:56:17.839Z,1.00
2023-03-13T10:58:56.321Z,1.00
2023-03-13T11:01:33.841Z,1.00
2023-03-13T11:04:23.099Z,1.00
2023-03-13T11:07:03.933Z,1.00
2023-03-13T11:09:39.120Z,1.00
2023-03-13T11:12:20.201Z,1.00
2023-03-13T11:15:03.891Z,1.00
2023-03-13T11:17:42.436Z,1.00
2023-03-13T11:20:25.894Z,1.00
2023-03-13T11:23:14.355Z,99.90
2023-03-13T11:26:01.352Z,99.90
2023-03-13T11:28:49.741Z,99.90
2023-03-13T11:31:35.303Z,99.90
2023-03-13T11:34:24.083Z,1.00
2023-03-13T11:37:04.102Z,1.00
2023-03-13T11:39:51.547Z,1.00
2023-03-13T11:42:46.755Z,1.00
2023-03-13T11:45:42.788Z,1.00
2023-03-13T11:48:34.040Z,1.00
2023-03-13T11:51:14.442Z,1.00
2023-03-13T11:54:10.799Z,1.00
2023-03-13T11:56:48.595Z,1.00
2023-03-13T11:59:34.795Z,1.00
2023-03-13T12:02:21.185Z,1.00
2023-03-13T12:05:02.764Z,1.00
2023-03-13T12:07:42.838Z,1.00
2023-03-13T12:10:21.156Z,1.00
2023-03-13T12:13:03.887Z,1.00
2023-03-13T12:15:43.191Z,1.00
2023-03-13T12:18:23.344Z,1.00
2023-03-13T12:21:07.122Z,1.00
2023-03-13T12:23:48.709Z,1.00
2023-03-13T12:26:25.751Z,1.00
2023-03-13T12:29:09.245Z,1.00
2023-03-13T12:31:53.295Z,99.90
2023-03-13T12:34:33.954Z,1.00
2023-03-13T12:37:26.350Z,1.00
2023-03-13T12:40:07.393Z,1.00
2023-03-13T12:42:52.388Z,1.00
2023-03-13T12:45:29.958Z,1.00
2023-03-13T12:48:26.945Z,1.00
2023-03-13T12:51:20.932Z,1.00
2023-03-13T12:54:31.926Z,1.00
2023-03-13T12:57:18.836Z,1.00
2023-03-13T12:59:59.207Z,1.00
2023-03-13T13:02:35.051Z,1.00
2023-03-13T13:05:20.616Z,1.00
2023-03-13T13:07:57.866Z,1.00
2023-03-13T13:10:41.604Z,1.00
2023-03-13T13:13:41.937Z,1.00
2023-03-13T13:16:22.686Z,1.00
2023-03-13T13:18:57.641Z,1.00
2023-03-13T13:21:33.548Z,1.00
2023-03-13T13:24:40.851Z,99.90
2023-03-13T13:27:47.929Z,99.90
2023-03-13T13:30:36.062Z,99.90
2023-03-13T13:33:40.687Z,99.90
2023-03-13T13:36:32.129Z,99.90
2023-03-13T13:39:32.692Z,99.90
2023-03-13T13:42:43.952Z,99.90
2023-03-13T13:45:29.610Z,99.90
2023-03-13T13:48:31.094Z,99.90
2023-03-13T13:51:30.501Z,99.90
2023-03-13T13:54:34.462Z,99.90
2023-03-13T13:57:11.884Z,99.90
2023-03-13T13:59:49.515Z,99.90
2023-03-13T14:02:29.159Z,1.00
2023-03-13T14:05:17.792Z,1.00
2023-03-13T14:08:03.776Z,1.00
2023-03-13T14:10:43.629Z,1.00
2023-03-13T14:13:20.699Z,1.00
2023-03-13T14:15:56.692Z,1.00
2023-03-13T14:18:33.383Z,1.00
2023-03-13T14:21:14.303Z,1.00
2023-03-13T14:23:49.875Z,1.00
2023-03-13T14:26:26.753Z,99.90
2023-03-13T14:29:07.795Z,99.90
2023-03-13T14:31:43.094Z,99.90
2023-03-13T14:34:18.144Z,99.90
2023-03-13T14:37:10.930Z,99.90
2023-03-13T14:39:52.027Z,99.90
2023-03-13T14:42:27.076Z,99.90
2023-03-13T14:45:02.200Z,1.00
2023-03-13T14:47:37.178Z,1.00
2023-03-13T14:50:17.629Z,1.00
2023-03-13T14:52:58.144Z,1.00
2023-03-13T14:55:36.695Z,1.00
2023-03-13T14:58:29.694Z,1.00
2023-03-13T15:01:16.835Z,1.00
2023-03-13T15:03:52.486Z,1.00
2023-03-13T15:06:27.954Z,1.00
2023-03-13T15:09:25.232Z,1.00
2023-03-13T15:12:04.098Z,1.00
2023-03-13T15:14:41.901Z,1.00
2023-03-13T15:17:20.845Z,1.00
2023-03-13T15:19:57.546Z,1.00
2023-03-13T15:22:35.314Z,1.00
2023-03-13T15:25:18.744Z,1.00
2023-03-13T15:27:56.701Z,1.00
2023-03-13T15:30:35.602Z,1.00
2023-03-13T15:33:16.270Z,1.00
2023-03-13T15:35:52.461Z,1.00
2023-03-13T15:38:29.297Z,1.00
2023-03-13T15:41:09.384Z,1.00
2023-03-13T15:43:44.321Z,1.00
2023-03-13T15:46:19.305Z,1.00
2023-03-13T15:48:54.471Z,1.00
2023-03-13T15:51:29.589Z,1.00
2023-03-13T15:54:04.618Z,1.00
2023-03-13T15:56:42.270Z,1.00
2023-03-13T15:59:18.755Z,1.00
2023-03-13T16:01:56.317Z,1.00
2023-03-13T16:04:33.224Z,1.00
2023-03-13T16:07:12.712Z,1.00
2023-03-13T16:09:47.958Z,1.00
2023-03-13T16:12:25.656Z,1.00
2023-03-13T16:15:00.713Z,1.00
2023-03-13T16:17:35.816Z,1.00
2023-03-13T16:20:17.021Z,1.00
2023-03-13T16:22:53.683Z,1.00
2023-03-13T16:25:28.845Z,1.00
2023-03-13T16:28:07.592Z,1.00
2023-03-13T16:30:47.677Z,1.00
2023-03-13T16:33:25.547Z,1.00
2023-03-13T16:36:00.604Z,1.00
2023-03-13T16:38:35.619Z,1.00
2023-03-13T16:41:13.525Z,1.00
2023-03-13T16:43:52.052Z,1.00
2023-03-13T16:46:32.820Z,1.00
